Time;durP1;ratioP1;P1;durP2;ratioP2;P2;SDS_P1;SDS_P2;PMS_P1;PMS_P2;Temp;Humidity;BMP_temperature;BMP_pressure;BME280_temperature;BME280_humidity;BME280_pressure;Samples;Min_cycle;Max_cycle;Signal;HPM_P1;HPM_P2
2022/11/28 00:00:55;;;;;;;31.23;4.67;;;8.20;99.90;;;;;;5072987;28;20542;-56
2022/11/28 00:03:21;;;;;;;43.83;5.70;;;8.00;99.90;;;;;;5073083;28;20175;-56
2022/11/28 00:05:47;;;;;;;39.27;4.80;;;6.90;99.90;;;;;;5072858;28;20180;-57
2022/11/28 00:08:13;;;;;;;33.97;4.17;;;7.90;99.90;;;;;;5072370;28;20208;-56
2022/11/28 00:10:40;;;;;;;34.60;4.40;;;7.80;99.90;;;;;;5072496;28;20646;-56
2022/11/28 00:13:05;;;;;;;33.83;4.80;;;7.80;99.90;;;;;;5072310;28;20180;-57
2022/11/28 00:15:31;;;;;;;37.30;4.63;;;7.90;99.90;;;;;;5070519;28;20706;-56
2022/11/28 00:17:57;;;;;;;41.20;4.43;;;7.70;99.90;;;;;;5072134;28;20187;-57
2022/11/28 00:20:23;;;;;;;31.87;4.33;;;7.70;99.90;;;;;;5071593;28;20203;-56
2022/11/28 00:22:49;;;;;;;27.37;4.50;;;7.60;99.90;;;;;;5071278;28;20222;-57
2022/11/28 00:25:14;;;;;;;39.67;5.17;;;7.60;99.90;;;;;;5071527;28;20165;-57
2022/11/28 00:27:40;;;;;;;35.47;4.20;;;7.60;99.90;;;;;;5072159;28;20573;-56
2022/11/28 00:30:06;;;;;;;39.37;4.33;;;7.40;99.90;;;;;;5072556;28;20208;-57
2022/11/28 00:32:32;;;;;;;29.17;4.03;;;7.40;99.90;;;;;;5072543;28;20199;-61
2022/11/28 00:34:57;;;;;;;26.73;4.87;;;7.30;99.90;;;;;;5072405;28;20176;-57
2022/11/28 00:37:23;;;;;;;39.67;4.70;;;7.30;99.90;;;;;;5072394;28;20172;-57
2022/11/28 00:39:49;;;;;;;35.47;4.67;;;7.60;99.90;;;;;;5072251;28;20165;-56
2022/11/28 00:42:15;;;;;;;38.10;4.37;;;7.20;99.90;;;;;;5072087;28;20228;-57
2022/11/28 00:44:41;;;;;;;41.07;5.23;;;7.20;99.90;;;;;;5072387;28;20168;-57
2022/11/28 00:47:06;;;;;;;31.00;4.60;;;7.10;99.90;;;;;;5072169;28;20184;-57
2022/11/28 00:49:32;;;;;;;27.63;4.27;;;7.10;99.90;;;;;;5072142;28;20288;-56
2022/11/28 00:51:57;;;;;;;51.80;5.37;;;7.40;99.90;;;;;;5072102;28;20291;-57
2022/11/28 00:54:23;;;;;;;39.03;4.50;;;7.30;99.90;;;;;;5072080;28;20184;-57
2022/11/28 00:56:49;;;;;;;40.77;4.03;;;7.30;99.90;;;;;;5071979;28;20172;-57
2022/11/28 00:59:14;;;;;;;27.60;3.80;;;7.50;99.90;;;;;;5071944;28;20195;-57
2022/11/28 01:01:42;;;;;;;48.40;4.70;;;8.10;99.90;;;;;;5072048;28;20169;-57
2022/11/28 01:04:11;;;;;;;32.50;4.10;;;7.80;99.90;;;;;;5071929;28;20176;-58
2022/11/28 01:06:40;;;;;;;33.87;4.40;;;7.80;99.90;;;;;;5070357;28;20254;-57
2022/11/28 01:09:14;;;;;;;39.33;4.13;;;7.40;99.90;;;;;;5071037;28;20208;-57
2022/11/28 01:11:41;;;;;;;35.97;4.07;;;7.80;99.90;;;;;;5071058;28;20191;-57
2022/11/28 01:14:08;;;;;;;35.20;4.03;;;7.80;99.90;;;;;;5069776;28;20573;-57
2022/11/28 01:16:33;;;;;;;47.53;4.77;;;8.00;99.90;;;;;;5070967;28;20223;-57
2022/11/28 01:18:59;;;;;;;35.20;4.03;;;7.70;99.90;;;;;;5071259;28;20168;-57
2022/11/28 01:21:25;;;;;;;34.30;3.60;;;7.90;99.90;;;;;;5071322;28;20623;-56
2022/11/28 01:23:51;;;;;;;31.23;4.20;;;7.90;99.90;;;;;;5069586;28;20180;-57
2022/11/28 01:26:20;;;;;;;37.30;4.30;;;7.70;99.90;;;;;;5071392;28;20164;-57
2022/11/28 01:28:46;;;;;;;37.07;4.50;;;8.30;99.90;;;;;;5071299;28;20208;-56
2022/11/28 01:31:16;;;;;;;33.87;3.80;;;7.80;99.90;;;;;;5071393;28;20181;-56
2022/11/28 01:33:42;;;;;;;32.27;3.80;;;;;;;;;;5071443;28;20255;-56
2022/11/28 01:36:10;;;;;;;27.57;4.17;;;8.30;99.90;;;;;;5071272;28;20206;-56
2022/11/28 01:38:35;;;;;;;20.87;3.53;;;8.30;99.90;;;;;;5074106;28;20265;-56
2022/11/28 01:41:02;;;;;;;32.03;3.33;;;8.00;99.90;;;;;;5070982;28;20210;-56
2022/11/28 01:43:27;;;;;;;29.37;3.40;;;8.20;99.90;;;;;;5071489;28;20181;-56
2022/11/28 01:45:53;;;;;;;23.77;3.37;;;8.00;99.90;;;;;;5071142;28;20681;-57
2022/11/28 01:48:30;;;;;;;34.93;4.27;;;8.20;99.90;;;;;;5071101;28;20208;-56
2022/11/28 01:50:59;;;;;;;24.70;2.93;;;8.10;99.90;;;;;;5071163;28;20218;-56
2022/11/28 01:53:29;;;;;;;26.43;3.37;;;8.00;99.90;;;;;;5071062;28;20198;-57
2022/11/28 01:56:17;;;;;;;29.47;3.33;;;8.40;99.90;;;;;;5071005;28;20169;-57
2022/11/28 01:58:47;;;;;;;26.53;3.13;;;8.10;99.90;;;;;;5070954;28;20183;-57
2022/11/28 02:01:15;;;;;;;27.20;3.20;;;8.30;99.90;;;;;;5070667;28;20184;-57
2022/11/28 02:03:48;;;;;;;33.47;3.40;;;8.00;99.90;;;;;;5069205;28;20169;-57
2022/11/28 02:06:17;;;;;;;25.73;3.37;;;8.00;99.90;;;;;;5070113;28;20176;-57
2022/11/28 02:08:43;;;;;;;25.37;3.23;;;8.00;99.90;;;;;;5051742;28;20584;-57
2022/11/28 02:11:22;;;;;;;23.03;2.87;;;8.00;99.90;;;;;;5070436;28;20226;-57
2022/11/28 02:14:08;;;;;;;28.07;2.87;;;8.10;99.90;;;;;;5070469;28;20172;-57
2022/11/28 02:17:05;;;;;;;19.27;2.77;;;8.10;99.90;;;;;;5069301;28;20263;-57
2022/11/28 02:19:57;;;;;;;24.93;2.60;;;7.70;99.90;;;;;;5070880;28;20161;-57
2022/11/28 02:22:58;;;;;;;34.03;5.17;;;7.90;99.90;;;;;;5070812;28;20203;-57
2022/11/28 02:25:37;;;;;;;18.77;2.90;;;7.70;99.90;;;;;;5066581;28;20543;-57
2022/11/28 02:28:21;;;;;;;26.33;2.90;;;7.80;99.90;;;;;;5070531;28;20225;-57
2022/11/28 02:31:18;;;;;;;28.70;2.93;;;8.00;99.90;;;;;;5070914;28;20164;-57
2022/11/28 02:34:12;;;;;;;29.93;3.43;;;7.70;99.90;;;;;;5070775;28;20164;-57
2022/11/28 02:36:49;;;;;;;17.67;2.67;;;8.00;99.90;;;;;;5070676;28;20260;-57
2022/11/28 02:39:30;;;;;;;22.37;3.67;;;7.60;99.90;;;;;;5072378;28;20178;-57
2022/11/28 02:42:03;;;;;;;21.63;3.17;;;7.80;99.90;;;;;;5078920;28;20280;-57
2022/11/28 02:44:59;;;;;;;27.83;3.90;;;7.80;99.90;;;;;;5094860;28;20188;-57
2022/11/28 02:47:31;;;;;;;20.73;2.77;;;7.70;99.90;;;;;;5094798;28;20179;-57
2022/11/28 02:50:03;;;;;;;25.17;3.53;;;7.10;99.90;;;;;;5094666;28;20180;-57
2022/11/28 02:52:36;;;;;;;38.83;2.77;;;7.60;99.90;;;;;;5094712;28;20168;-57
2022/11/28 02:55:02;;;;;;;18.90;2.77;;;7.50;99.90;;;;;;5094680;28;20172;-57
2022/11/28 02:57:36;;;;;;;23.43;3.57;;;7.50;99.90;;;;;;5094505;28;20229;-57
2022/11/28 03:00:02;;;;;;;25.40;3.40;;;7.60;99.90;;;;;;5094523;28;20665;-57
2022/11/28 03:02:30;;;;;;;26.53;2.67;;;7.80;99.90;;;;;;5094121;28;20662;-57
2022/11/28 03:05:11;;;;;;;24.57;3.57;;;8.00;99.90;;;;;;5093724;28;20168;-57
2022/11/28 03:07:58;;;;;;;19.47;2.80;;;8.00;99.90;;;;;;5093454;28;20711;-57
2022/11/28 03:10:56;;;;;;;22.67;2.67;;;8.00;99.90;;;;;;5090458;28;20232;-57
2022/11/28 03:13:47;;;;;;;27.80;3.03;;;7.90;99.90;;;;;;5093870;28;20225;-57
2022/11/28 03:16:44;;;;;;;19.03;2.27;;;8.00;99.90;;;;;;5093363;28;20204;-57
2022/11/28 03:19:36;;;;;;;27.30;3.10;;;7.90;99.90;;;;;;5094174;28;20172;-58
2022/11/28 03:22:28;;;;;;;22.63;3.03;;;7.80;99.90;;;;;;5094089;28;20168;-57
2022/11/28 03:25:02;;;;;;;32.77;3.10;;;7.70;99.90;;;;;;5094064;28;20631;-57
2022/11/28 03:27:36;;;;;;;23.10;3.17;;;7.60;99.90;;;;;;5093943;28;20202;-57
2022/11/28 03:30:39;;;;;;;20.40;3.23;;;7.70;99.90;;;;;;5093979;28;20259;-57
2022/11/28 03:33:06;;;;;;;29.70;3.07;;;7.70;99.90;;;;;;5062540;28;20201;-57
2022/11/28 03:35:39;;;;;;;28.33;2.77;;;7.70;99.90;;;;;;5093895;28;20167;-57
2022/11/28 03:38:26;;;;;;;21.03;2.73;;;7.80;99.90;;;;;;5093876;28;20176;-57
2022/11/28 03:40:55;;;;;;;30.17;3.13;;;7.80;99.90;;;;;;5077030;28;20168;-57
2022/11/28 03:43:31;;;;;;;26.63;3.00;;;7.90;99.90;;;;;;5073269;28;20299;-57
2022/11/28 03:46:02;;;;;;;27.17;2.50;;;7.90;99.90;;;;;;5073430;28;20706;-57
2022/11/28 03:48:36;;;;;;;25.53;2.83;;;7.90;99.90;;;;;;5073251;28;20715;-57
2022/11/28 03:51:14;;;;;;;19.47;2.50;;;8.00;99.90;;;;;;5072171;28;20225;-57
2022/11/28 03:53:59;;;;;;;22.40;2.60;;;8.00;99.90;;;;;;5073216;28;20176;-57
2022/11/28 03:56:40;;;;;;;32.10;2.90;;;8.10;99.90;;;;;;5073165;28;20165;-57
2022/11/28 03:59:12;;;;;;;23.30;2.10;;;8.10;99.90;;;;;;5067964;28;20168;-57
2022/11/28 04:02:00;;;;;;;18.70;2.20;;;8.10;99.90;;;;;;5072019;28;20494;-57
2022/11/28 04:04:26;;;;;;;15.00;2.50;;;8.10;99.90;;;;;;5072017;28;20188;-57
2022/11/28 04:06:53;;;;;;;25.70;2.57;;;8.00;99.90;;;;;;5073163;28;20191;-57
2022/11/28 04:09:32;;;;;;;23.30;2.73;;;8.10;99.90;;;;;;5072966;28;20679;-57
2022/11/28 04:12:09;;;;;;;25.50;2.50;;;8.10;99.90;;;;;;5073177;28;20199;-57
2022/11/28 04:14:52;;;;;;;24.13;2.70;;;8.30;99.90;;;;;;5072899;28;20176;-56
2022/11/28 04:17:23;;;;;;;26.43;2.67;;;8.30;99.90;;;;;;5072859;28;20169;-57
2022/11/28 04:19:56;;;;;;;17.60;2.10;;;8.20;99.90;;;;;;5072793;28;20442;-57
2022/11/28 04:22:33;;;;;;;24.00;2.90;;;8.20;99.90;;;;;;5072846;28;20627;-57
2022/11/28 04:25:11;;;;;;;21.03;2.87;;;8.30;99.90;;;;;;5072744;28;20907;-57
2022/11/28 04:27:50;;;;;;;17.27;2.67;;;8.10;99.90;;;;;;5072661;28;20266;-57
2022/11/28 04:30:16;;;;;;;22.60;2.30;;;8.10;99.90;;;;;;5072805;28;20235;-57
2022/11/28 04:32:50;;;;;;;16.77;2.70;;;7.90;99.90;;;;;;5072627;28;20201;-57
2022/11/28 04:35:32;;;;;;;18.23;2.60;;;8.60;99.90;;;;;;5072513;28;20180;-57
2022/11/28 04:38:00;;;;;;;25.83;2.97;;;7.90;99.90;;;;;;5072608;28;20180;-57
2022/11/28 04:40:30;;;;;;;20.03;2.80;;;8.10;99.90;;;;;;5072490;28;20194;-57
2022/11/28 04:43:03;;;;;;;20.60;2.60;;;8.10;99.90;;;;;;5072328;28;20224;-57
2022/11/28 04:45:44;;;;;;;23.70;2.90;;;7.80;99.90;;;;;;5072345;28;20176;-57
2022/11/28 04:48:10;;;;;;;27.67;2.80;;;8.20;99.90;;;;;;5072173;28;20207;-57
2022/11/28 04:50:52;;;;;;;17.80;2.00;;;7.90;99.90;;;;;;5072528;28;20550;-57
2022/11/28 04:53:26;;;;;;;19.27;2.43;;;8.00;99.90;;;;;;5072103;28;20655;-57
2022/11/28 04:56:00;;;;;;;20.80;2.03;;;8.00;99.90;;;;;;5072647;28;20164;-57
2022/11/28 04:58:39;;;;;;;20.20;2.23;;;8.10;99.90;;;;;;5072292;28;20187;-57
2022/11/28 05:01:08;;;;;;;17.53;2.80;;;8.20;99.90;;;;;;5064252;28;20739;-57
2022/11/28 05:03:34;;;;;;;23.60;2.57;;;8.20;99.90;;;;;;5071984;28;20204;-57
2022/11/28 05:06:02;;;;;;;22.17;2.17;;;8.40;99.90;;;;;;5072069;28;20258;-58
2022/11/28 05:08:27;;;;;;;23.43;3.10;;;8.40;99.90;;;;;;5071807;28;20196;-58
2022/11/28 05:10:53;;;;;;;31.43;2.77;;;8.20;99.90;;;;;;5071819;28;20722;-58
2022/11/28 05:13:19;;;;;;;31.90;3.30;;;8.30;99.90;;;;;;5071875;28;20165;-58
2022/11/28 05:15:45;;;;;;;28.97;2.67;;;8.30;99.90;;;;;;5071697;28;20233;-58
2022/11/28 05:18:10;;;;;;;20.70;2.50;;;8.10;99.90;;;;;;5071779;28;20176;-59
2022/11/28 05:20:37;;;;;;;16.87;2.03;;;8.20;99.90;;;;;;5071646;28;20631;-58
2022/11/28 05:23:02;;;;;;;22.10;2.40;;;8.20;99.90;;;;;;5071576;28;20169;-58
2022/11/28 05:25:28;;;;;;;28.30;3.20;;;;;;;;;;5071607;28;20247;-58
2022/11/28 05:27:54;;;;;;;20.10;2.47;;;8.00;99.90;;;;;;5071420;28;20164;-58
2022/11/28 05:30:20;;;;;;;32.07;3.30;;;8.20;99.90;;;;;;5071616;28;20181;-58
2022/11/28 05:32:46;;;;;;;20.23;2.63;;;8.10;99.90;;;;;;5071573;28;20666;-58
2022/11/28 05:35:11;;;;;;;27.83;2.87;;;8.10;99.90;;;;;;5071503;28;20562;-58
2022/11/28 05:37:37;;;;;;;25.27;2.87;;;7.80;99.90;;;;;;5071349;28;20229;-58
2022/11/28 05:40:03;;;;;;;24.13;2.50;;;;;;;;;;5074607;28;20584;-58
2022/11/28 05:42:34;;;;;;;21.20;2.93;;;8.00;99.90;;;;;;5071162;28;20216;-57
2022/11/28 05:45:00;;;;;;;20.87;2.90;;;7.80;99.90;;;;;;5071282;28;20156;-57
2022/11/28 05:47:25;;;;;;;20.87;1.97;;;7.80;99.90;;;;;;5071361;28;20685;-57
2022/11/28 05:49:51;;;;;;;27.20;2.27;;;7.80;99.90;;;;;;5071097;28;20212;-57
2022/11/28 05:52:17;;;;;;;12.70;1.70;;;7.90;99.90;;;;;;5071206;28;20584;-58
2022/11/28 05:54:42;;;;;;;21.30;2.37;;;7.80;99.90;;;;;;5070710;28;20262;-59
2022/11/28 05:57:08;;;;;;;16.07;1.90;;;7.80;99.90;;;;;;5069903;28;20226;-60
2022/11/28 05:59:34;;;;;;;24.60;2.20;;;7.70;99.90;;;;;;5069817;28;20230;-58
2022/11/28 06:02:00;;;;;;;18.73;2.03;;;8.10;99.90;;;;;;5067399;28;20192;-58
2022/11/28 06:04:25;;;;;;;20.63;2.00;;;7.80;99.90;;;;;;5070651;28;20677;-58
2022/11/28 06:06:51;;;;;;;18.03;1.97;;;7.80;99.90;;;;;;5070791;28;20184;-59
2022/11/28 06:09:17;;;;;;;19.07;2.17;;;7.70;99.90;;;;;;5071083;28;20212;-57
2022/11/28 06:11:43;;;;;;;14.77;2.07;;;8.20;99.90;;;;;;5070890;28;20169;-57
2022/11/28 06:14:10;;;;;;;19.43;2.27;;;7.50;99.90;;;;;;5070389;28;20617;-57
2022/11/28 06:16:36;;;;;;;19.53;2.67;;;;;;;;;;5070935;28;20172;-57
2022/11/28 06:19:03;;;;;;;20.20;2.10;;;7.70;99.90;;;;;;5070950;28;20168;-57
2022/11/28 06:21:30;;;;;;;14.57;2.17;;;7.60;99.90;;;;;;5070863;28;20168;-57
2022/11/28 06:23:57;;;;;;;19.50;2.67;;;7.80;99.90;;;;;;5070832;28;20172;-56
2022/11/28 06:26:24;;;;;;;19.07;2.00;;;8.10;99.90;;;;;;5070777;28;20172;-56
2022/11/28 06:28:50;;;;;;;17.70;2.20;;;8.20;99.90;;;;;;5070845;28;20208;-57
2022/11/28 06:31:18;;;;;;;21.53;2.23;;;7.90;99.90;;;;;;5070739;28;20733;-57
2022/11/28 06:33:44;;;;;;;18.33;1.97;;;7.90;99.90;;;;;;5070763;28;20713;-57
2022/11/28 06:36:12;;;;;;;17.70;2.70;;;7.90;99.90;;;;;;5070724;28;20172;-57
2022/11/28 06:38:38;;;;;;;15.93;2.17;;;;;;;;;;5070769;28;20252;-57
2022/11/28 06:41:07;;;;;;;19.50;2.20;;;8.10;99.90;;;;;;5070732;28;20180;-58
2022/11/28 06:43:33;;;;;;;17.47;2.30;;;7.90;99.90;;;;;;5070618;28;20184;-58
2022/11/28 06:45:59;;;;;;;19.63;2.17;;;7.70;99.90;;;;;;5070659;28;20176;-58
2022/11/28 06:48:24;;;;;;;20.37;2.20;;;7.60;99.90;;;;;;5070568;28;20273;-58
2022/11/28 06:50:51;;;;;;;16.13;2.50;;;7.80;99.90;;;;;;5070578;28;20172;-57
2022/11/28 06:53:17;;;;;;;26.87;2.13;;;7.50;99.90;;;;;;5070729;28;20535;-57
2022/11/28 06:55:42;;;;;;;10.37;2.20;;;7.80;99.90;;;;;;5070586;28;20233;-57
2022/11/28 06:58:08;;;;;;;22.30;2.40;;;7.50;99.90;;;;;;5066765;28;20683;-58
2022/11/28 07:00:34;;;;;;;19.00;2.50;;;7.50;99.90;;;;;;5067107;28;20238;-58
2022/11/28 07:03:00;;;;;;;26.07;2.70;;;7.50;99.90;;;;;;5070486;28;20214;-58
2022/11/28 07:05:29;;;;;;;28.87;2.60;;;7.40;99.90;;;;;;5070353;28;20573;-57
2022/11/28 07:07:56;;;;;;;24.20;3.23;;;7.30;99.90;;;;;;5070543;28;20169;-57
2022/11/28 07:10:22;;;;;;;19.33;2.30;;;7.30;99.90;;;;;;5070443;28;20187;-58
2022/11/28 07:12:55;;;;;;;18.60;2.67;;;7.30;99.90;;;;;;5070368;28;20171;-58
2022/11/28 07:15:21;;;;;;;16.40;2.07;;;7.40;99.90;;;;;;5070348;28;20175;-58
2022/11/28 07:17:47;;;;;;;37.10;3.00;;;7.60;99.90;;;;;;5070277;28;20177;-58
2022/11/28 07:20:13;;;;;;;17.03;2.37;;;7.50;99.90;;;;;;5070321;28;20184;-58
2022/11/28 07:22:39;;;;;;;30.40;2.80;;;6.60;99.90;;;;;;5070211;28;20176;-58
2022/11/28 07:25:05;;;;;;;25.93;2.57;;;7.70;99.90;;;;;;5071642;28;20176;-58
2022/11/28 07:27:30;;;;;;;20.13;3.20;;;7.80;99.90;;;;;;5073803;28;20177;-58
2022/11/28 07:29:56;;;;;;;23.73;2.90;;;7.90;99.90;;;;;;5055534;28;20228;-58
2022/11/28 07:32:22;;;;;;;22.43;3.03;;;7.80;99.90;;;;;;5073694;28;20248;-57
2022/11/28 07:34:47;;;;;;;18.63;2.87;;;7.90;99.90;;;;;;5073782;28;20253;-58
2022/11/28 07:37:14;;;;;;;23.90;2.60;;;8.00;99.90;;;;;;5073571;28;20219;-57
2022/11/28 07:39:41;;;;;;;26.30;2.77;;;8.00;99.90;;;;;;5073274;28;20177;-57
2022/11/28 07:42:06;;;;;;;21.50;3.10;;;8.00;99.90;;;;;;5076202;28;20272;-57
2022/11/28 07:44:32;;;;;;;23.17;3.00;;;7.90;99.90;;;;;;5073487;28;20275;-57
2022/11/28 07:46:58;;;;;;;23.20;2.83;;;8.00;99.90;;;;;;5073321;28;20180;-57
2022/11/28 07:49:23;;;;;;;23.30;4.50;;;7.90;99.90;;;;;;5073176;28;20671;-57
2022/11/28 07:51:49;;;;;;;22.90;5.17;;;8.00;99.90;;;;;;5071608;28;20314;-57
2022/11/28 07:54:14;;;;;;;29.03;3.40;;;7.90;99.90;;;;;;5067269;28;20565;-57
2022/11/28 07:56:40;;;;;;;21.03;3.37;;;8.00;99.90;;;;;;5073205;28;20182;-57
2022/11/28 07:59:06;;;;;;;19.07;2.63;;;8.00;99.90;;;;;;5073237;28;20176;-57
2022/11/28 08:01:36;;;;;;;14.07;2.30;;;7.90;99.90;;;;;;5073058;28;20218;-57
2022/11/28 08:04:05;;;;;;;19.47;2.60;;;7.90;99.90;;;;;;5073055;28;20172;-57
2022/11/28 08:06:34;;;;;;;24.87;3.07;;;7.90;99.90;;;;;;5072998;28;20173;-58
2022/11/28 08:09:00;;;;;;;19.90;3.07;;;7.90;99.90;;;;;;5073105;28;20215;-57
2022/11/28 08:11:28;;;;;;;31.80;3.33;;;7.80;99.90;;;;;;5072782;28;20639;-57
2022/11/28 08:13:55;;;;;;;23.33;3.57;;;7.90;99.90;;;;;;5072944;28;20202;-57
2022/11/28 08:16:23;;;;;;;38.67;4.03;;;7.90;99.90;;;;;;5073121;28;20173;-57
2022/11/28 08:18:50;;;;;;;13.27;2.80;;;8.10;99.90;;;;;;5072867;28;20211;-57
2022/11/28 08:21:19;;;;;;;24.97;3.23;;;8.00;99.90;;;;;;5072915;28;20207;-56
2022/11/28 08:23:46;;;;;;;27.50;2.97;;;;;;;;;;5072694;28;20172;-61
2022/11/28 08:26:16;;;;;;;22.80;3.40;;;7.90;99.90;;;;;;5072668;28;20218;-57
2022/11/28 08:28:42;;;;;;;21.07;3.77;;;8.00;99.90;;;;;;5072305;28;20689;-57
2022/11/28 08:31:10;;;;;;;17.93;3.13;;;7.90;99.90;;;;;;5072590;28;20196;-57
2022/11/28 08:33:36;;;;;;;18.87;3.10;;;8.00;99.90;;;;;;5072546;28;20181;-57
2022/11/28 08:36:08;;;;;;;22.50;3.50;;;8.10;99.90;;;;;;5072094;28;20180;-57
2022/11/28 08:38:35;;;;;;;25.17;3.80;;;8.00;99.90;;;;;;5072464;28;20240;-57
2022/11/28 08:41:09;;;;;;;25.87;3.53;;;8.10;99.90;;;;;;5054127;28;20176;-57
2022/11/28 08:43:36;;;;;;;19.97;4.03;;;8.50;99.90;;;;;;5072459;28;20196;-58
2022/11/28 08:46:03;;;;;;;23.40;3.67;;;9.00;99.90;;;;;;5072384;28;20263;-57
2022/11/28 08:48:29;;;;;;;19.87;3.20;;;8.90;99.90;;;;;;5064445;28;20841;-58
2022/11/28 08:50:55;;;;;;;19.37;3.80;;;8.70;99.90;;;;;;5072085;28;20258;-58
2022/11/28 08:53:21;;;;;;;17.50;2.97;;;8.50;99.90;;;;;;5072109;28;20204;-57
2022/11/28 08:55:48;;;;;;;17.80;3.20;;;8.80;99.90;;;;;;5071991;28;20193;-58
2022/11/28 08:58:14;;;;;;;19.70;3.40;;;8.60;99.90;;;;;;5072048;28;20181;-57
2022/11/28 09:00:41;;;;;;;16.37;3.23;;;9.10;99.90;;;;;;5072137;28;20223;-56
2022/11/28 09:03:07;;;;;;;20.67;3.40;;;9.40;99.90;;;;;;5071644;28;20184;-56
2022/11/28 09:05:33;;;;;;;21.53;3.30;;;9.30;99.90;;;;;;5071773;28;20251;-56
2022/11/28 09:07:59;;;;;;;26.60;3.60;;;9.60;99.90;;;;;;5071544;28;20324;-56
2022/11/28 09:10:24;;;;;;;21.80;3.37;;;9.80;99.90;;;;;;5071654;28;20180;-57
2022/11/28 09:12:51;;;;;;;23.50;3.30;;;11.00;99.90;;;;;;5071640;28;20173;-54
2022/11/28 09:15:17;;;;;;;11.03;3.17;;;11.10;99.90;;;;;;5071404;28;20191;-56
2022/11/28 09:17:46;;;;;;;15.63;3.20;;;11.90;99.90;;;;;;5071387;28;20207;-56
2022/11/28 09:20:12;;;;;;;18.80;3.10;;;12.00;99.90;;;;;;5071469;28;20225;-55
2022/11/28 09:22:37;;;;;;;17.43;3.40;;;12.00;99.90;;;;;;5071358;28;20181;-56
2022/11/28 09:25:03;;;;;;;12.50;3.37;;;12.10;99.90;;;;;;5071471;28;20615;-56
2022/11/28 09:27:29;;;;;;;16.00;3.37;;;11.20;99.90;;;;;;5071397;28;20230;-57
2022/11/28 09:29:55;;;;;;;16.43;3.90;;;11.30;99.90;;;;;;5071334;28;20216;-57
2022/11/28 09:32:20;;;;;;;13.67;3.70;;;11.40;99.90;;;;;;5071350;28;20175;-56
2022/11/28 09:34:46;;;;;;;21.27;3.87;;;12.50;99.90;;;;;;5071273;28;20183;-56
2022/11/28 09:37:11;;;;;;;25.87;4.50;;;12.10;99.90;;;;;;5071363;28;20272;-56
2022/11/28 09:39:37;;;;;;;9.53;3.40;;;12.00;99.90;;;;;;5071368;28;20204;-56
2022/11/28 09:42:15;;;;;;;21.73;3.97;;;11.70;99.90;;;;;;5073208;28;20220;-56
2022/11/28 09:45:06;;;;;;;20.73;4.50;;;11.60;99.90;;;;;;5065409;28;20301;-57
2022/11/28 09:47:35;;;;;;;16.40;4.20;;;11.70;99.90;;;;;;5061573;28;20756;-55
2022/11/28 09:50:15;;;;;;;15.60;4.27;;;11.10;99.90;;;;;;5070280;28;20266;-56
2022/11/28 09:52:56;;;;;;;14.53;4.07;;;11.00;99.90;;;;;;5071312;28;20183;-59
2022/11/28 09:55:39;;;;;;;21.50;3.80;;;10.90;99.90;;;;;;5071109;28;20171;-59
2022/11/28 09:58:15;;;;;;;16.73;3.53;;;10.80;99.90;;;;;;5071054;28;20167;-56
2022/11/28 10:01:08;;;;;;;16.57;3.77;;;10.80;99.90;;;;;;5070951;28;20167;-56
2022/11/28 10:03:46;;;;;;;20.17;3.90;;;10.70;99.90;;;;;;5070811;28;20271;-56
2022/11/28 10:06:37;;;;;;;14.70;3.13;;;10.80;99.90;;;;;;5070824;28;20172;-56
2022/11/28 10:09:40;;;;;;;14.43;3.10;;;11.30;99.90;;;;;;5066939;28;20216;-56
2022/11/28 10:12:28;;;;;;;14.97;2.27;;;11.40;99.90;;;;;;5070840;28;20172;-55
2022/11/28 10:15:07;;;;;;;13.57;2.60;;;11.50;99.90;;;;;;5070681;28;20671;-55
2022/11/28 10:17:52;;;;;;;11.57;2.27;;;11.50;99.90;;;;;;5070777;28;20200;-56
2022/11/28 10:20:25;;;;;;;11.07;2.30;;;11.70;99.90;;;;;;5070570;28;20160;-56
2022/11/28 10:23:12;;;;;;;20.10;2.17;;;11.60;99.90;;;;;;5070746;28;20181;-56
2022/11/28 10:25:40;;;;;;;11.13;1.87;;;11.70;99.90;;;;;;5070806;28;20172;-56
2022/11/28 10:28:13;;;;;;;7.00;1.60;;;11.80;99.90;;;;;;5070429;28;20180;-56
2022/11/28 10:30:41;;;;;;;7.70;1.80;;;12.20;99.90;;;;;;5070508;28;20176;-56
2022/11/28 10:33:22;;;;;;;14.80;1.57;;;13.60;99.90;;;;;;5070553;28;20169;-56
2022/11/28 10:35:56;;;;;;;11.07;2.07;;;14.00;99.90;;;;;;5070584;28;20217;-56
2022/11/28 10:38:26;;;;;;;10.70;1.73;;;14.10;99.90;;;;;;5063060;28;20199;-56
2022/11/28 10:41:03;;;;;;;13.40;1.73;;;14.30;99.90;;;;;;5070621;28;20180;-56
2022/11/28 10:44:15;;;;;;;16.63;2.13;;;14.50;99.90;;;;;;5070599;28;20196;-56
2022/11/28 10:47:01;;;;;;;15.93;2.13;;;14.40;99.90;;;;;;5041788;28;20185;-55
2022/11/28 10:49:49;;;;;;;9.02;1.50;;;15.40;99.90;;;;;;5069217;28;20291;-55
2022/11/28 10:52:25;;;;;;;18.20;1.90;;;14.10;99.90;;;;;;5069273;28;20199;-54
2022/11/28 10:55:09;;;;;;;9.45;1.42;;;14.70;99.90;;;;;;5068935;28;20264;-54
2022/11/28 10:58:07;;;;;;;13.40;1.70;;;14.60;99.90;;;;;;5068925;28;20161;-54
2022/11/28 11:00:34;;;;;;;10.05;1.65;;;15.50;99.90;;;;;;5070924;28;20184;-55
2022/11/28 11:03:01;;;;;;;11.07;1.33;;;15.00;99.90;;;;;;5072860;28;20238;-56
2022/11/28 11:05:31;;;;;;;12.38;1.98;;;14.90;99.90;;;;;;5073663;28;20662;-55
2022/11/28 11:08:18;;;;;;;8.20;1.27;;;15.30;99.90;;;;;;5073898;28;20172;-55
2022/11/28 11:10:51;;;;;;;11.25;1.60;;;16.80;99.90;;;;;;5074069;28;20278;-55
2022/11/28 11:13:23;;;;;;;12.48;2.00;;;16.80;99.90;;;;;;5073857;28;20184;-59
2022/11/28 11:15:56;;;;;;;16.00;1.75;;;17.30;99.90;;;;;;5074104;28;20208;-55
2022/11/28 11:18:26;;;;;;;11.65;2.00;;;16.00;99.90;;;;;;5073749;28;20636;-56
2022/11/28 11:21:07;;;;;;;14.95;1.98;;;16.30;99.90;;;;;;5073789;28;20647;-55
2022/11/28 11:23:33;;;;;;;11.15;1.90;;;17.90;99.90;;;;;;5073642;28;20271;-55
2022/11/28 11:25:59;;;;;;;10.73;2.20;;;17.90;99.90;;;;;;5065948;28;20275;-55
2022/11/28 11:28:31;;;;;;;11.65;2.10;;;19.30;99.90;;;;;;5073837;28;20200;-56
2022/11/28 11:31:17;;;;;;;11.15;2.03;;;19.60;99.90;;;;;;5073831;28;20185;-56
2022/11/28 11:33:44;;;;;;;10.75;2.15;;;20.30;99.90;;;;;;5065400;28;20200;-55
2022/11/28 11:36:26;;;;;;;7.68;1.70;;;20.50;99.90;;;;;;5073665;28;20169;-55
2022/11/28 11:39:24;;;;;;;10.32;1.67;;;21.70;99.90;;;;;;5073904;28;20169;-56
2022/11/28 11:41:59;;;;;;;11.43;2.10;;;22.40;99.90;;;;;;5073673;28;20220;-55
2022/11/28 11:44:35;;;;;;;9.15;1.77;;;23.30;99.90;;;;;;5075242;28;20229;-55
2022/11/28 11:47:07;;;;;;;10.50;2.25;;;20.40;99.90;;;;;;5073228;28;20638;-54
2022/11/28 11:49:36;;;;;;;8.35;2.08;;;20.90;99.90;;;;;;5073145;28;20219;-54
2022/11/28 11:52:14;;;;;;;12.55;1.70;;;19.20;99.90;;;;;;5073345;28;20260;-55
2022/11/28 11:54:46;;;;;;;15.18;2.25;;;18.00;99.90;;;;;;5073067;28;20681;-54
2022/11/28 11:57:14;;;;;;;8.18;1.98;;;18.00;99.90;;;;;;5073407;28;20176;-55
2022/11/28 11:59:44;;;;;;;9.80;2.10;;;19.10;99.90;;;;;;5072903;28;20366;-54
2022/11/28 12:02:34;;;;;;;6.97;1.55;;;22.20;99.90;;;;;;5072910;28;20243;-54
2022/11/28 12:05:14;;;;;;;5.47;1.70;;;23.50;99.90;;;;;;5054891;28;20173;-54
2022/11/28 12:08:09;;;;;;;8.15;1.50;;;25.10;99.90;;;;;;5073063;28;20168;-55
2022/11/28 12:10:45;;;;;;;6.53;1.65;;;25.50;99.90;;;;;;5058454;28;20208;-55
2022/11/28 12:13:19;;;;;;;6.97;1.75;;;25.40;99.90;;;;;;5072326;28;20164;-55
2022/11/28 12:16:21;;;;;;;6.32;1.58;;;25.90;99.90;;;;;;5072714;28;20184;-55
2022/11/28 12:19:19;;;;;;;5.93;1.83;;;24.30;99.90;;;;;;5072720;28;20175;-55
2022/11/28 12:22:12;;;;;;;9.75;1.60;;;25.00;99.90;;;;;;5041313;28;20241;-55
2022/11/28 12:25:01;;;;;;;6.47;1.65;;;24.30;99.90;;;;;;5072466;28;20195;-55
2022/11/28 12:27:58;;;;;;;8.30;1.88;;;24.40;99.90;;;;;;5067923;28;20474;-55
2022/11/28 12:30:32;;;;;;;7.93;1.35;;;25.30;99.90;;;;;;5072450;28;20643;-55
2022/11/28 12:33:13;;;;;;;9.48;1.83;;;25.30;99.90;;;;;;5072337;28;20168;-56
2022/11/28 12:35:46;;;;;;;9.63;1.80;;;23.90;99.90;;;;;;5072378;28;20169;-55
2022/11/28 12:38:12;;;;;;;8.43;1.70;;;22.30;99.90;;;;;;5080357;28;20208;-55
2022/11/28 12:40:43;;;;;;;11.65;2.05;;;22.80;99.90;;;;;;5092541;28;20211;-56
2022/11/28 12:43:33;;;;;;;10.27;1.88;;;24.50;99.90;;;;;;5092281;28;20223;-56
2022/11/28 12:46:04;;;;;;;8.35;1.40;;;25.00;99.90;;;;;;5092458;28;20239;-56
2022/11/28 12:48:57;;;;;;;7.78;1.48;;;25.30;99.90;;;;;;5092249;28;20199;-55
2022/11/28 12:51:39;;;;;;;10.35;2.20;;;25.40;99.90;;;;;;5092354;28;20668;-56
2022/11/28 12:54:26;;;;;;;7.35;1.45;;;24.10;99.90;;;;;;5092241;28;20580;-58
2022/11/28 12:57:15;;;;;;;3.35;1.17;;;23.90;99.90;;;;;;5092380;28;20797;-56
2022/11/28 13:00:09;;;;;;;5.57;1.30;;;24.50;99.90;;;;;;5092302;28;20358;-56
2022/11/28 13:03:12;;;;;;;5.97;1.38;;;24.80;99.90;;;;;;5092026;28;20180;-55
2022/11/28 13:05:37;;;;;;;6.88;1.40;;;25.70;99.90;;;;;;5092032;28;20167;-55
2022/11/28 13:08:29;;;;;;;4.20;1.23;;;25.00;99.90;;;;;;5092126;28;20199;-55
2022/11/28 13:11:21;;;;;;;4.43;1.38;;;24.20;99.90;;;;;;5091878;28;20519;-56
2022/11/28 13:14:11;;;;;;;3.20;1.00;;;24.10;99.90;;;;;;5091963;28;20183;-55